Vanquish — PHCU — position and weather

sailwx.info

Track history (hours):
 
Tides and Currents Weather Stations Pressure Air Temp Water Temp Dewpoint Dewpoint Depression Visibility Wind Speed Wind Dir Waves Ship Positions

Vanquish

Last reported at 2014-Oct-22 20:33 UTC. Time now 2014-Oct-23 06:49 UTC.
Position N 53°57' W 006°00'.

MMSI: 246138952.

Date/timePositionNaut miles runAvg speedWind from/ knotsBaromVisibWave heightAir tempDewpointWater temp
2014-Oct-22 20:33N 53°57' W 006°00'9 9.0
2014-Oct-22 19:33N 54°04' W 006°11'2 0.2
2014-Oct-22 08:12N 54°02' W 006°08'4 6.3
2014-Oct-22 07:33N 53°60' W 006°03'5 5.2
2014-Oct-22 06:33N 53°55' W 005°60'8411.4
2014-Oct-21 23:10N 52°30' W 005°51'711.0
2014-Oct-21 22:33N 52°24' W 005°54'1311.2
2014-Oct-21 21:23N 52°11' W 005°58'106 6.7
2014-Oct-21 05:31N 51°20' W 003°27'9 9.3
2014-Oct-21 04:33N 51°21' W 003°13'9 8.7
2014-Oct-21 03:33N 51°26' W 003°01'9 8.8
2014-Oct-21 02:33N 51°30' W 002°48'4 3.8
2014-Oct-21 01:33N 51°30' W 002°42'0 0.0
2014-Oct-21 00:32N 51°30' W 002°42'0 0.0
2014-Oct-20 23:32N 51°30' W 002°42'0 0.0
2014-Oct-20 22:32N 51°30' W 002°42'0 0.0
2014-Oct-20 21:32N 51°30' W 002°42'0 0.0
2014-Oct-20 20:32N 51°30' W 002°42'0 0.0
2014-Oct-20 19:32N 51°30' W 002°42'0 0.0
2014-Oct-20 18:32N 51°30' W 002°42'0 0.0
2014-Oct-20 17:32N 51°30' W 002°42'0 0.0
2014-Oct-20 16:32N 51°30' W 002°42'0 0.0
2014-Oct-20 15:32N 51°30' W 002°42'0 0.0
2014-Oct-20 14:32N 51°30' W 002°42'0 0.0
2014-Oct-20 13:32N 51°30' W 002°42'0 0.0
2014-Oct-20 12:32N 51°30' W 002°42'0 0.0
2014-Oct-20 11:32N 51°30' W 002°42'0 0.0
2014-Oct-20 10:32N 51°30' W 002°42'0 0.0
2014-Oct-20 09:32N 51°30' W 002°42'0 0.0
2014-Oct-20 08:32N 51°30' W 002°42'0 0.0
2014-Oct-20 07:32N 51°30' W 002°42'0 0.0
2014-Oct-20 06:32N 51°30' W 002°42'0 0.0
2014-Oct-20 05:32N 51°30' W 002°42'0 0.0
2014-Oct-20 04:32N 51°30' W 002°42'0 0.0
2014-Oct-20 03:32N 51°30' W 002°42'0 0.0
2014-Oct-20 02:32N 51°30' W 002°42'0 0.0
2014-Oct-20 01:32N 51°30' W 002°42'0 0.0
2014-Oct-20 00:32N 51°30' W 002°42'0 0.0
2014-Oct-19 23:32N 51°30' W 002°42'0 0.0
2014-Oct-19 22:32N 51°30' W 002°42'0 0.0
2014-Oct-19 21:32N 51°30' W 002°42'0 0.0
2014-Oct-19 20:32N 51°30' W 002°42'0 0.0
2014-Oct-19 19:32N 51°30' W 002°42'0 0.0
2014-Oct-19 18:32N 51°30' W 002°42'0 0.0
2014-Oct-19 17:32N 51°30' W 002°42'0 0.4
2014-Oct-19 16:33N 51°30' W 002°43'5 4.9
2014-Oct-19 15:33N 51°29' W 002°50'1212.4
2014-Oct-19 14:33N 51°22' W 003°07'183 7.3
2014-Oct-18 13:21N 53°53' W 005°59'1010.5
2014-Oct-18 12:27N 54°01' W 006°05'1 0.0
2014-Oct-17 05:33N 54°02' W 006°07'19110.0
2014-Oct-16 10:25N 51°23' W 003°10'1011.8
2014-Oct-16 09:33N 51°27' W 002°55'8 8.3
2014-Oct-16 08:34N 51°30' W 002°43'0 0.3
2014-Oct-16 07:33N 51°30' W 002°42'0 0.0
2014-Oct-16 06:33N 51°30' W 002°42'0 0.0
2014-Oct-16 05:32N 51°30' W 002°42'0 0.0
2014-Oct-16 04:32N 51°30' W 002°42'0 0.0
2014-Oct-16 03:32N 51°30' W 002°42'0 0.0
2014-Oct-16 02:32N 51°30' W 002°42'0 0.0
2014-Oct-16 01:32N 51°30' W 002°42'0 0.0
2014-Oct-16 00:32N 51°30' W 002°42'0 0.0
2014-Oct-15 23:33N 51°30' W 002°42'0 0.0
2014-Oct-15 22:32N 51°30' W 002°42'0 0.4
2014-Oct-15 21:33N 51°30' W 002°43'5 5.1
2014-Oct-15 20:33N 51°29' W 002°50'180 8.9
2014-Oct-15 00:18N 53°48' W 005°58'811.1
2014-Oct-14 23:33N 53°56' W 006°00'4 0.5
2014-Oct-14 16:33N 53°60' W 006°02'18910.3
2014-Oct-13 22:17N 51°24' W 003°07'911.7
2014-Oct-13 21:34N 51°27' W 002°55'8 8.1
2014-Oct-13 20:34N 51°30' W 002°43'0 0.3
2014-Oct-13 19:31N 51°30' W 002°42'0 0.0
2014-Oct-13 18:31N 51°30' W 002°42'0 0.0
2014-Oct-13 17:31N 51°30' W 002°42'0 0.0
2014-Oct-13 16:31N 51°30' W 002°42'0 0.0
2014-Oct-13 15:31N 51°30' W 002°42'0 0.0
2014-Oct-13 14:31N 51°30' W 002°42'0 0.0
2014-Oct-13 13:31N 51°30' W 002°42'0 0.0
2014-Oct-13 12:31N 51°30' W 002°42'0 0.0
2014-Oct-13 11:31N 51°30' W 002°42'0 0.0
2014-Oct-13 10:31N 51°30' W 002°42'0 0.0
2014-Oct-13 09:31N 51°30' W 002°42'0 0.0
2014-Oct-13 08:31N 51°30' W 002°42'0 0.0
2014-Oct-13 07:31N 51°30' W 002°42'0 0.0
2014-Oct-13 06:31N 51°30' W 002°42'0 0.0
2014-Oct-13 05:31N 51°30' W 002°42'0 0.0
2014-Oct-13 04:30N 51°30' W 002°42'0 0.0
2014-Oct-13 03:31N 51°30' W 002°42'0 0.0
2014-Oct-13 02:31N 51°30' W 002°42'0 0.0
2014-Oct-13 01:31N 51°30' W 002°42'0 0.0
2014-Oct-13 00:31N 51°30' W 002°42'0 0.0
2014-Oct-12 23:31N 51°30' W 002°42'0 0.0
2014-Oct-12 22:31N 51°30' W 002°42'0 0.0
2014-Oct-12 21:34N 51°30' W 002°42'0 0.0
2014-Oct-12 20:33N 51°30' W 002°42'  
Track history (hours):
 
Tides and Currents Weather Stations Pressure Air Temp Water Temp Dewpoint Dewpoint Depression Visibility Wind Speed Wind Dir Waves Ship Positions

Vanquish

Last reported at 2014-Oct-22 20:33 UTC. Time now 2014-Oct-23 06:49 UTC.
Position N 53°57' W 006°00'.

MMSI: 246138952.

Date/timePositionNaut miles runAvg speedWind from/ knotsBaromVisibWave heightAir tempDewpointWater temp
2014-Oct-22 20:33N 53°57' W 006°00'9 9.0
2014-Oct-22 19:33N 54°04' W 006°11'2 0.2
2014-Oct-22 08:12N 54°02' W 006°08'4 6.3
2014-Oct-22 07:33N 53°60' W 006°03'5 5.2
2014-Oct-22 06:33N 53°55' W 005°60'8411.4
2014-Oct-21 23:10N 52°30' W 005°51'711.0
2014-Oct-21 22:33N 52°24' W 005°54'1311.2
2014-Oct-21 21:23N 52°11' W 005°58'106 6.7
2014-Oct-21 05:31N 51°20' W 003°27'9 9.3
2014-Oct-21 04:33N 51°21' W 003°13'9 8.7
2014-Oct-21 03:33N 51°26' W 003°01'9 8.8
2014-Oct-21 02:33N 51°30' W 002°48'4 3.8
2014-Oct-21 01:33N 51°30' W 002°42'0 0.0
2014-Oct-21 00:32N 51°30' W 002°42'0 0.0
2014-Oct-20 23:32N 51°30' W 002°42'0 0.0
2014-Oct-20 22:32N 51°30' W 002°42'0 0.0
2014-Oct-20 21:32N 51°30' W 002°42'0 0.0
2014-Oct-20 20:32N 51°30' W 002°42'0 0.0
2014-Oct-20 19:32N 51°30' W 002°42'0 0.0
2014-Oct-20 18:32N 51°30' W 002°42'0 0.0
2014-Oct-20 17:32N 51°30' W 002°42'0 0.0
2014-Oct-20 16:32N 51°30' W 002°42'0 0.0
2014-Oct-20 15:32N 51°30' W 002°42'0 0.0
2014-Oct-20 14:32N 51°30' W 002°42'0 0.0
2014-Oct-20 13:32N 51°30' W 002°42'0 0.0
2014-Oct-20 12:32N 51°30' W 002°42'0 0.0
2014-Oct-20 11:32N 51°30' W 002°42'0 0.0
2014-Oct-20 10:32N 51°30' W 002°42'0 0.0
2014-Oct-20 09:32N 51°30' W 002°42'0 0.0
2014-Oct-20 08:32N 51°30' W 002°42'0 0.0
2014-Oct-20 07:32N 51°30' W 002°42'0 0.0
2014-Oct-20 06:32N 51°30' W 002°42'0 0.0
2014-Oct-20 05:32N 51°30' W 002°42'0 0.0
2014-Oct-20 04:32N 51°30' W 002°42'0 0.0
2014-Oct-20 03:32N 51°30' W 002°42'0 0.0
2014-Oct-20 02:32N 51°30' W 002°42'0 0.0
2014-Oct-20 01:32N 51°30' W 002°42'0 0.0
2014-Oct-20 00:32N 51°30' W 002°42'0 0.0
2014-Oct-19 23:32N 51°30' W 002°42'0 0.0
2014-Oct-19 22:32N 51°30' W 002°42'0 0.0
2014-Oct-19 21:32N 51°30' W 002°42'0 0.0
2014-Oct-19 20:32N 51°30' W 002°42'0 0.0
2014-Oct-19 19:32N 51°30' W 002°42'0 0.0
2014-Oct-19 18:32N 51°30' W 002°42'0 0.0
2014-Oct-19 17:32N 51°30' W 002°42'0 0.4
2014-Oct-19 16:33N 51°30' W 002°43'5 4.9
2014-Oct-19 15:33N 51°29' W 002°50'1212.4
2014-Oct-19 14:33N 51°22' W 003°07'183 7.3
2014-Oct-18 13:21N 53°53' W 005°59'1010.5
2014-Oct-18 12:27N 54°01' W 006°05'1 0.0
2014-Oct-17 05:33N 54°02' W 006°07'19110.0
2014-Oct-16 10:25N 51°23' W 003°10'1011.8
2014-Oct-16 09:33N 51°27' W 002°55'8 8.3
2014-Oct-16 08:34N 51°30' W 002°43'0 0.3
2014-Oct-16 07:33N 51°30' W 002°42'0 0.0
2014-Oct-16 06:33N 51°30' W 002°42'0 0.0
2014-Oct-16 05:32N 51°30' W 002°42'0 0.0
2014-Oct-16 04:32N 51°30' W 002°42'0 0.0
2014-Oct-16 03:32N 51°30' W 002°42'0 0.0
2014-Oct-16 02:32N 51°30' W 002°42'0 0.0
2014-Oct-16 01:32N 51°30' W 002°42'0 0.0
2014-Oct-16 00:32N 51°30' W 002°42'0 0.0
2014-Oct-15 23:33N 51°30' W 002°42'0 0.0
2014-Oct-15 22:32N 51°30' W 002°42'0 0.4
2014-Oct-15 21:33N 51°30' W 002°43'5 5.1
2014-Oct-15 20:33N 51°29' W 002°50'180 8.9
2014-Oct-15 00:18N 53°48' W 005°58'811.1
2014-Oct-14 23:33N 53°56' W 006°00'4 0.5
2014-Oct-14 16:33N 53°60' W 006°02'18910.3
2014-Oct-13 22:17N 51°24' W 003°07'911.7
2014-Oct-13 21:34N 51°27' W 002°55'8 8.1
2014-Oct-13 20:34N 51°30' W 002°43'0 0.3
2014-Oct-13 19:31N 51°30' W 002°42'0 0.0
2014-Oct-13 18:31N 51°30' W 002°42'0 0.0
2014-Oct-13 17:31N 51°30' W 002°42'0 0.0
2014-Oct-13 16:31N 51°30' W 002°42'0 0.0
2014-Oct-13 15:31N 51°30' W 002°42'0 0.0
2014-Oct-13 14:31N 51°30' W 002°42'0 0.0
2014-Oct-13 13:31N 51°30' W 002°42'0 0.0
2014-Oct-13 12:31N 51°30' W 002°42'0 0.0
2014-Oct-13 11:31N 51°30' W 002°42'0 0.0
2014-Oct-13 10:31N 51°30' W 002°42'0 0.0
2014-Oct-13 09:31N 51°30' W 002°42'0 0.0
2014-Oct-13 08:31N 51°30' W 002°42'0 0.0
2014-Oct-13 07:31N 51°30' W 002°42'0 0.0
2014-Oct-13 06:31N 51°30' W 002°42'0 0.0
2014-Oct-13 05:31N 51°30' W 002°42'0 0.0
2014-Oct-13 04:30N 51°30' W 002°42'0 0.0
2014-Oct-13 03:31N 51°30' W 002°42'0 0.0
2014-Oct-13 02:31N 51°30' W 002°42'0 0.0
2014-Oct-13 01:31N 51°30' W 002°42'0 0.0
2014-Oct-13 00:31N 51°30' W 002°42'0 0.0
2014-Oct-12 23:31N 51°30' W 002°42'0 0.0
2014-Oct-12 22:31N 51°30' W 002°42'0 0.0
2014-Oct-12 21:34N 51°30' W 002°42'0 0.0
2014-Oct-12 20:33N 51°30' W 002°42'  

Dump ship's entire track history